createdAt,value
2022-11-04T00:00:13.738Z,8.90
2022-11-04T00:02:41.560Z,8.83
2022-11-04T00:05:09.712Z,9.47
2022-11-04T00:07:56.050Z,8.77
2022-11-04T00:10:43.758Z,8.57
2022-11-04T00:13:10.596Z,8.90
2022-11-04T00:15:55.579Z,9.07
2022-11-04T00:18:23.261Z,8.90
2022-11-04T00:21:08.527Z,8.57
2022-11-04T00:23:55.127Z,8.30
2022-11-04T00:26:40.470Z,7.80
2022-11-04T00:29:08.325Z,7.37
2022-11-04T00:31:53.795Z,6.50
2022-11-04T00:34:21.635Z,7.30
2022-11-04T00:36:49.511Z,8.23
2022-11-04T00:39:19.440Z,7.73
2022-11-04T00:41:47.299Z,7.93
2022-11-04T00:44:15.155Z,8.07
2022-11-04T00:46:43.050Z,8.20
2022-11-04T00:49:10.894Z,8.00
2022-11-04T00:51:38.757Z,8.20
2022-11-04T00:54:07.254Z,8.00
2022-11-04T00:56:38.672Z,8.77
2022-11-04T00:59:10.382Z,7.97
2022-11-04T01:01:41.870Z,8.90
2022-11-04T01:04:10.835Z,8.37
2022-11-04T01:06:38.679Z,8.57
2022-11-04T01:09:09.325Z,8.40
2022-11-04T01:11:38.574Z,8.00
2022-11-04T01:14:06.462Z,8.60
2022-11-04T01:16:34.589Z,8.67
2022-11-04T01:19:03.643Z,8.60
2022-11-04T01:21:31.687Z,8.70
2022-11-04T01:24:00.862Z,7.60
2022-11-04T01:26:30.383Z,8.17
2022-11-04T01:29:00.299Z,7.80
2022-11-04T01:31:30.005Z,8.10
2022-11-04T01:33:59.350Z,8.10
2022-11-04T01:36:28.162Z,7.87
2022-11-04T01:38:57.500Z,7.80
2022-11-04T01:41:27.710Z,8.23
2022-11-04T01:43:57.343Z,8.20
2022-11-04T01:46:36.767Z,8.00
2022-11-04T01:49:13.940Z,8.40
2022-11-04T01:51:43.755Z,8.63
2022-11-04T01:54:12.665Z,8.33
2022-11-04T01:56:43.164Z,8.23
2022-11-04T01:59:19.833Z,8.70
2022-11-04T02:01:49.311Z,8.67
2022-11-04T02:04:26.971Z,8.80
2022-11-04T02:06:56.862Z,9.10
2022-11-04T02:09:26.351Z,9.10
2022-11-04T02:12:11.654Z,9.23
2022-11-04T02:14:40.704Z,9.50
2022-11-04T02:17:22.527Z,8.50
2022-11-04T02:20:05.427Z,9.67
2022-11-04T02:22:53.997Z,9.63
2022-11-04T02:25:55.141Z,10.37
2022-11-04T02:28:52.918Z,10.00
2022-11-04T02:31:31.619Z,9.47
2022-11-04T02:34:06.247Z,9.60
2022-11-04T02:36:40.658Z,9.50
2022-11-04T02:39:20.158Z,9.60
2022-11-04T02:41:58.974Z,8.43
2022-11-04T02:44:33.412Z,8.57
2022-11-04T02:47:07.472Z,8.17
2022-11-04T02:49:41.592Z,7.93
2022-11-04T02:52:11.642Z,6.00
2022-11-04T02:54:45.155Z,6.20
2022-11-04T02:57:18.615Z,6.57
2022-11-04T02:59:50.650Z,6.03
2022-11-04T03:02:23.996Z,5.97
2022-11-04T03:04:53.971Z,6.03
2022-11-04T03:07:25.958Z,5.10
2022-11-04T03:10:01.469Z,4.70
2022-11-04T03:12:36.686Z,4.60
2022-11-04T03:15:11.253Z,4.20
2022-11-04T03:17:48.003Z,3.80
2022-11-04T03:20:19.381Z,3.70
2022-11-04T03:22:47.435Z,3.80
2022-11-04T03:25:15.396Z,3.97
2022-11-04T03:27:50.381Z,3.90
2022-11-04T03:30:20.584Z,3.80
2022-11-04T03:33:00.055Z,3.47
2022-11-04T03:35:29.162Z,3.07
2022-11-04T03:37:58.105Z,3.37
2022-11-04T03:40:27.158Z,3.50
2022-11-04T03:42:58.731Z,3.07
2022-11-04T03:45:27.387Z,3.00
2022-11-04T03:47:58.141Z,3.20
2022-11-04T03:50:29.757Z,2.73
2022-11-04T03:52:58.919Z,2.77
2022-11-04T03:55:36.708Z,2.67
2022-11-04T03:58:09.662Z,2.60
2022-11-04T04:00:44.082Z,2.80
2022-11-04T04:03:18.971Z,2.70
2022-11-04T04:05:54.140Z,2.70
2022-11-04T04:08:35.759Z,2.43
2022-11-04T04:11:09.443Z,2.80
2022-11-04T04:13:45.841Z,2.50
2022-11-04T04:16:19.336Z,2.73
2022-11-04T04:18:58.491Z,2.10
2022-11-04T04:21:31.586Z,2.50
2022-11-04T04:24:21.063Z,2.30
2022-11-04T04:27:08.521Z,2.40
2022-11-04T04:29:38.216Z,2.30
2022-11-04T04:32:07.970Z,2.40
2022-11-04T04:34:38.050Z,2.27
2022-11-04T04:37:10.303Z,1.97
2022-11-04T04:39:59.936Z,2.30
2022-11-04T04:42:50.390Z,2.50
2022-11-04T04:45:23.494Z,1.90
2022-11-04T04:47:52.483Z,2.47
2022-11-04T04:50:23.058Z,1.80
2022-11-04T04:52:53.386Z,2.07
2022-11-04T04:55:21.246Z,2.33
2022-11-04T04:57:49.114Z,1.83
2022-11-04T05:00:19.396Z,2.10
2022-11-04T05:02:47.455Z,2.00
2022-11-04T05:07:49.675Z,1.93
2022-11-04T05:10:18.811Z,2.03
2022-11-04T05:13:04.310Z,2.13
2022-11-04T05:15:33.021Z,2.13
2022-11-04T05:18:04.415Z,1.47
2022-11-04T05:20:34.266Z,2.07
2022-11-04T05:23:03.662Z,2.13
2022-11-04T05:25:31.683Z,2.00
2022-11-04T05:28:01.826Z,1.70
2022-11-04T05:30:30.334Z,1.97
2022-11-04T05:33:01.581Z,1.90
2022-11-04T05:35:32.715Z,2.10
2022-11-04T05:38:00.626Z,2.10
2022-11-04T05:40:29.867Z,2.10
2022-11-04T05:42:59.774Z,1.70
2022-11-04T05:45:27.919Z,1.93
2022-11-04T05:48:00.183Z,2.20
2022-11-04T05:50:28.437Z,1.93
2022-11-04T05:52:58.078Z,1.83
2022-11-04T05:55:26.082Z,2.37
2022-11-04T05:57:56.443Z,2.00
2022-11-04T06:00:24.317Z,2.10
2022-11-04T06:02:52.452Z,2.10
2022-11-04T06:05:20.534Z,2.27
2022-11-04T06:07:48.378Z,2.13
2022-11-04T06:10:16.299Z,1.80
2022-11-04T06:12:44.199Z,2.10
2022-11-04T06:15:13.582Z,2.07
2022-11-04T06:17:41.518Z,2.50
2022-11-04T06:20:11.083Z,2.30
2022-11-04T06:22:38.958Z,2.40
2022-11-04T06:25:07.165Z,2.17
2022-11-04T06:27:35.037Z,1.97
2022-11-04T06:30:03.089Z,2.10
2022-11-04T06:32:32.385Z,2.30
2022-11-04T06:35:00.399Z,1.90
2022-11-04T06:37:28.247Z,2.00
2022-11-04T06:39:56.167Z,2.03
2022-11-04T06:42:26.955Z,2.00
2022-11-04T06:44:54.806Z,1.70
2022-11-04T06:47:24.943Z,1.80
2022-11-04T06:49:54.428Z,1.67
2022-11-04T06:52:22.291Z,2.00
2022-11-04T06:54:50.173Z,2.00
2022-11-04T06:57:18.095Z,1.90
2022-11-04T06:59:46.043Z,1.97
2022-11-04T07:02:14.071Z,2.00
2022-11-04T07:04:42.019Z,2.20
2022-11-04T07:07:11.378Z,1.90
2022-11-04T07:09:39.326Z,2.03
2022-11-04T07:12:07.202Z,1.70
2022-11-04T07:14:35.164Z,2.20
2022-11-04T07:17:03.494Z,3.03
2022-11-04T07:19:31.403Z,2.80
2022-11-04T07:21:59.303Z,2.10
2022-11-04T07:24:28.537Z,2.00
2022-11-04T07:26:56.696Z,1.60
2022-11-04T07:29:25.494Z,1.90
2022-11-04T07:31:54.347Z,1.67
2022-11-04T07:34:22.325Z,1.63
2022-11-04T07:36:50.308Z,2.43
2022-11-04T07:39:18.488Z,2.13
2022-11-04T07:41:47.758Z,1.80
2022-11-04T07:44:15.668Z,2.17
2022-11-04T07:46:43.551Z,2.27
2022-11-04T07:49:11.571Z,2.20
2022-11-04T07:51:39.448Z,2.13
2022-11-04T07:54:07.319Z,2.47
2022-11-04T07:56:35.202Z,2.60
2022-11-04T07:59:06.931Z,2.13
2022-11-04T08:01:35.404Z,2.13
2022-11-04T08:04:05.083Z,1.90
2022-11-04T08:06:33.079Z,1.90
2022-11-04T08:09:00.997Z,1.80
2022-11-04T08:11:29.366Z,2.00
2022-11-04T08:13:57.325Z,2.20
2022-11-04T08:16:33.011Z,2.60
2022-11-04T08:19:02.688Z,2.40
2022-11-04T08:21:31.669Z,2.40
2022-11-04T08:23:59.872Z,2.53
2022-11-04T08:26:27.751Z,2.73
2022-11-04T08:28:55.863Z,2.30
2022-11-04T08:31:27.283Z,2.10
2022-11-04T08:33:56.349Z,2.00
2022-11-04T08:36:26.727Z,2.27
2022-11-04T08:38:55.110Z,2.63
2022-11-04T08:41:26.246Z,2.57
2022-11-04T08:43:54.497Z,2.70
2022-11-04T08:46:22.585Z,2.33
2022-11-04T08:48:51.823Z,2.40
2022-11-04T08:51:23.070Z,2.60
2022-11-04T08:53:51.467Z,2.40
2022-11-04T08:56:22.867Z,2.47
2022-11-04T08:58:50.967Z,2.77
2022-11-04T09:01:20.750Z,2.60
2022-11-04T09:03:49.139Z,2.33
2022-11-04T09:06:22.763Z,2.00
2022-11-04T09:08:52.326Z,2.40
2022-11-04T09:11:20.304Z,3.00
2022-11-04T09:13:48.191Z,2.80
2022-11-04T09:16:16.823Z,2.40
2022-11-04T09:18:44.695Z,2.37
2022-11-04T09:21:13.359Z,2.50
2022-11-04T09:23:42.623Z,2.30
2022-11-04T09:26:13.809Z,2.60
2022-11-04T09:28:42.210Z,2.33
2022-11-04T09:31:12.186Z,2.33
2022-11-04T09:33:40.413Z,2.40
2022-11-04T09:36:09.390Z,2.20
2022-11-04T09:38:37.752Z,2.30
2022-11-04T09:41:24.415Z,2.10
2022-11-04T09:44:00.518Z,2.30
2022-11-04T09:46:32.094Z,1.90
2022-11-04T09:49:03.795Z,2.00
2022-11-04T09:51:53.296Z,1.60
2022-11-04T09:54:24.281Z,1.50
2022-11-04T09:56:58.601Z,1.50
2022-11-04T09:59:29.966Z,1.40
2022-11-04T10:02:08.306Z,0.80
2022-11-04T10:04:50.336Z,1.10
2022-11-04T10:07:34.258Z,1.30
2022-11-04T10:10:10.407Z,1.43
2022-11-04T10:12:52.992Z,0.90
2022-11-04T10:15:43.538Z,0.90
2022-11-04T10:18:28.140Z,0.90
2022-11-04T10:21:06.457Z,1.17
2022-11-04T10:23:41.058Z,1.03
2022-11-04T10:26:16.248Z,1.10
2022-11-04T10:28:55.876Z,0.97
2022-11-04T10:31:25.530Z,1.07
2022-11-04T10:33:57.459Z,0.90
2022-11-04T10:36:26.542Z,1.30
2022-11-04T10:38:56.431Z,1.80
2022-11-04T10:41:31.746Z,2.37
2022-11-04T10:44:06.730Z,4.70
2022-11-04T10:46:49.175Z,3.20
2022-11-04T10:50:13.881Z,1.70
2022-11-04T10:52:37.924Z,1.50
2022-11-04T10:55:16.228Z,1.63
2022-11-04T10:57:44.523Z,1.90
2022-11-04T11:00:33.972Z,3.03
2022-11-04T11:03:01.868Z,3.40
2022-11-04T11:05:30.261Z,2.20
2022-11-04T11:07:59.146Z,1.70
2022-11-04T11:10:29.163Z,1.90
2022-11-04T11:13:02.155Z,1.80
2022-11-04T11:15:35.610Z,3.00
2022-11-04T11:18:19.067Z,1.90
2022-11-04T11:20:51.445Z,2.20
2022-11-04T11:23:38.359Z,2.27
2022-11-04T11:26:09.947Z,1.90
2022-11-04T11:28:39.496Z,2.10
2022-11-04T11:31:16.740Z,2.20
2022-11-04T11:33:53.351Z,3.00
2022-11-04T11:36:24.948Z,2.97
2022-11-04T11:39:05.960Z,2.70
2022-11-04T11:41:40.964Z,2.63
2022-11-04T11:44:21.395Z,2.83
2022-11-04T11:46:56.096Z,2.13
2022-11-04T11:49:28.967Z,3.60
2022-11-04T11:51:57.614Z,3.80
2022-11-04T11:54:34.564Z,2.33
2022-11-04T11:57:14.276Z,2.43
2022-11-04T12:02:46.705Z,2.90
2022-11-04T12:11:14.936Z,2.20
2022-11-04T12:13:49.481Z,2.30
2022-11-04T12:16:31.002Z,2.50
2022-11-04T12:19:26.301Z,2.37
2022-11-04T12:22:01.432Z,2.40
2022-11-04T12:24:41.194Z,2.93
2022-11-04T12:27:18.538Z,2.50
2022-11-04T12:30:04.678Z,4.60
2022-11-04T12:32:45.790Z,3.70
2022-11-04T12:35:31.402Z,2.73
2022-11-04T12:38:12.287Z,2.47
2022-11-04T12:41:05.079Z,2.53
2022-11-04T12:43:41.772Z,1.87
2022-11-04T12:46:19.102Z,1.90
2022-11-04T12:49:08.637Z,2.00
2022-11-04T12:51:48.928Z,1.70
2022-11-04T12:54:42.734Z,2.10
2022-11-04T12:57:19.929Z,1.87
2022-11-04T13:00:12.575Z,1.93
2022-11-04T13:02:46.649Z,1.97
2022-11-04T13:05:29.335Z,2.10
2022-11-04T13:08:04.358Z,2.03
2022-11-04T13:10:44.729Z,1.97
2022-11-04T13:13:16.544Z,1.90
2022-11-04T13:15:48.355Z,2.20
2022-11-04T13:18:20.362Z,1.93
2022-11-04T13:20:57.978Z,1.90
2022-11-04T13:23:38.407Z,1.90
2022-11-04T13:26:11.206Z,2.40
2022-11-04T13:28:41.975Z,2.30
2022-11-04T13:31:17.510Z,2.27
2022-11-04T13:33:52.153Z,2.10
2022-11-04T13:36:38.391Z,2.13
2022-11-04T13:39:14.582Z,1.97
2022-11-04T13:42:03.816Z,2.00
2022-11-04T13:44:37.445Z,2.50
2022-11-04T13:47:07.904Z,2.07
2022-11-04T13:49:37.548Z,1.90
2022-11-04T13:52:11.168Z,2.30
2022-11-04T13:54:44.059Z,1.97
2022-11-04T13:57:16.519Z,2.40
2022-11-04T14:00:04.747Z,2.73
2022-11-04T14:02:43.926Z,2.60
2022-11-04T14:05:47.106Z,2.00
2022-11-04T14:08:16.235Z,2.73
2022-11-04T14:10:59.673Z,1.90
2022-11-04T14:14:18.056Z,2.60
2022-11-04T14:16:47.186Z,3.17
2022-11-04T14:19:57.119Z,3.10
2022-11-04T14:22:33.625Z,2.93
2022-11-04T14:25:04.665Z,3.37
2022-11-04T14:27:40.229Z,3.43
2022-11-04T14:30:28.050Z,3.17
2022-11-04T14:33:00.064Z,3.73
2022-11-04T14:35:30.415Z,2.77
2022-11-04T14:38:03.168Z,4.10
2022-11-04T14:40:48.184Z,3.40
2022-11-04T14:43:33.459Z,2.83
2022-11-04T14:46:02.721Z,2.60
2022-11-04T14:48:32.451Z,2.40
2022-11-04T14:51:00.602Z,2.60
2022-11-04T14:53:33.643Z,2.13
2022-11-04T14:56:07.230Z,2.20
2022-11-04T14:58:37.554Z,2.37
2022-11-04T15:01:07.695Z,2.77
2022-11-04T15:06:40.725Z,3.00
2022-11-04T15:09:23.075Z,2.60
2022-11-04T15:12:08.292Z,2.80
2022-11-04T15:14:38.606Z,2.23
2022-11-04T15:17:06.587Z,2.50
2022-11-04T15:19:37.009Z,2.13
2022-11-04T15:22:07.441Z,3.30
2022-11-04T15:24:36.416Z,4.57
2022-11-04T15:27:07.414Z,5.63
2022-11-04T15:29:35.312Z,5.53
2022-11-04T15:32:06.362Z,6.37
2022-11-04T15:34:36.561Z,5.17
2022-11-04T15:37:06.522Z,4.60
2022-11-04T15:39:37.677Z,4.33
2022-11-04T15:42:29.759Z,4.53
2022-11-04T15:44:57.908Z,4.57
2022-11-04T15:47:29.036Z,10.50
2022-11-04T15:50:05.175Z,15.60
2022-11-04T15:52:33.048Z,11.87
2022-11-04T15:55:03.417Z,11.40
2022-11-04T15:57:35.935Z,9.60
2022-11-04T16:00:07.676Z,8.17
2022-11-04T16:02:41.400Z,8.97
2022-11-04T16:05:27.781Z,7.13
2022-11-04T16:07:59.577Z,6.60
2022-11-04T16:10:31.440Z,7.77
2022-11-04T16:13:00.783Z,10.73
2022-11-04T16:15:33.706Z,11.93
2022-11-04T16:18:03.939Z,12.83
2022-11-04T16:20:32.569Z,14.67
2022-11-04T16:23:02.672Z,14.27
2022-11-04T16:25:35.978Z,8.17
2022-11-04T16:28:04.117Z,10.77
2022-11-04T16:30:32.133Z,9.90
2022-11-04T16:33:12.261Z,8.50
2022-11-04T16:35:42.869Z,6.43
2022-11-04T16:38:10.808Z,4.57
2022-11-04T16:40:38.692Z,4.33
2022-11-04T16:43:06.731Z,4.23
2022-11-04T16:45:37.993Z,4.40
2022-11-04T16:48:06.806Z,3.83
2022-11-04T16:50:36.081Z,4.40
2022-11-04T16:53:04.362Z,5.03
2022-11-04T16:55:33.490Z,4.73
2022-11-04T16:58:04.719Z,5.60
2022-11-04T17:00:33.373Z,6.00
2022-11-04T17:03:01.649Z,8.77
2022-11-04T17:05:29.548Z,20.23
2022-11-04T17:08:04.805Z,25.10
2022-11-04T17:10:35.819Z,23.13
2022-11-04T17:13:03.743Z,25.17
2022-11-04T17:15:31.632Z,23.50
2022-11-04T17:17:59.524Z,20.33
2022-11-04T17:20:27.387Z,19.47
2022-11-04T17:22:55.453Z,17.50
2022-11-04T17:25:27.028Z,13.53
2022-11-04T17:27:55.202Z,14.03
2022-11-04T17:30:23.892Z,17.67
2022-11-04T17:32:52.431Z,13.40
2022-11-04T17:35:20.515Z,12.80
2022-11-04T17:37:48.374Z,14.00
2022-11-04T17:40:18.485Z,14.50
2022-11-04T17:43:11.600Z,14.03
2022-11-04T17:45:40.532Z,17.20
2022-11-04T17:48:10.211Z,18.37
2022-11-04T17:50:39.894Z,20.67
2022-11-04T17:53:08.206Z,21.13
2022-11-04T17:55:39.532Z,28.13
2022-11-04T17:58:08.856Z,21.67
2022-11-04T18:00:36.747Z,14.00
2022-11-04T18:03:06.852Z,16.40
2022-11-04T18:05:34.969Z,14.87
2022-11-04T18:08:02.962Z,14.63
2022-11-04T18:10:30.803Z,15.40
2022-11-04T18:12:57.646Z,14.90
2022-11-04T18:15:26.926Z,14.20
2022-11-04T18:17:54.790Z,13.57
2022-11-04T18:20:22.784Z,13.20
2022-11-04T18:22:50.644Z,13.90
2022-11-04T18:25:18.835Z,13.17
2022-11-04T18:27:48.961Z,13.90
2022-11-04T18:30:17.138Z,17.17
2022-11-04T18:32:46.405Z,18.63
2022-11-04T18:35:14.336Z,19.63
2022-11-04T18:37:47.045Z,17.63
2022-11-04T18:40:15.459Z,18.47
2022-11-04T18:42:43.530Z,14.70
2022-11-04T18:45:12.225Z,20.90
2022-11-04T18:47:40.139Z,29.93
2022-11-04T18:50:10.408Z,32.07
2022-11-04T18:52:38.300Z,15.43
2022-11-04T18:55:06.825Z,16.47
2022-11-04T18:57:34.846Z,16.17
2022-11-04T19:00:03.146Z,14.87
2022-11-04T19:02:32.439Z,14.40
2022-11-04T19:05:00.482Z,12.63
2022-11-04T19:07:29.739Z,12.67
2022-11-04T19:09:57.747Z,12.83
2022-11-04T19:12:42.918Z,12.07
2022-11-04T19:15:11.370Z,14.30
2022-11-04T19:17:39.702Z,13.70
2022-11-04T19:20:12.088Z,13.27
2022-11-04T19:22:42.285Z,13.07
2022-11-04T19:25:10.664Z,14.00
2022-11-04T19:27:38.670Z,11.87
2022-11-04T19:30:07.544Z,13.10
2022-11-04T19:32:35.393Z,12.93
2022-11-04T19:35:03.602Z,12.67
2022-11-04T19:37:31.463Z,11.67
2022-11-04T19:40:00.713Z,12.57
2022-11-04T19:42:46.115Z,11.30
2022-11-04T19:45:14.041Z,12.93
2022-11-04T19:50:10.336Z,13.00
2022-11-04T19:52:38.438Z,13.47
2022-11-04T19:55:08.846Z,12.50
2022-11-04T19:57:37.010Z,12.67
2022-11-04T20:00:05.760Z,12.37
2022-11-04T20:02:35.044Z,13.57
2022-11-04T20:05:03.464Z,12.90
2022-11-04T20:07:31.330Z,13.53
2022-11-04T20:09:59.360Z,13.43
2022-11-04T20:12:46.155Z,12.37
2022-11-04T20:15:14.929Z,12.23
2022-11-04T20:17:42.841Z,11.53
2022-11-04T20:20:11.383Z,11.90
2022-11-04T20:22:39.652Z,11.40
2022-11-04T20:25:08.093Z,9.80
2022-11-04T20:27:38.977Z,9.10
2022-11-04T20:30:07.868Z,8.90
2022-11-04T20:32:35.714Z,9.03
2022-11-04T20:35:03.697Z,7.33
2022-11-04T20:37:31.603Z,7.43
2022-11-04T20:39:59.523Z,8.10
2022-11-04T20:42:27.526Z,8.73
2022-11-04T20:44:56.822Z,10.17
2022-11-04T20:47:24.686Z,9.57
2022-11-04T20:49:52.606Z,10.03
2022-11-04T20:52:20.543Z,10.13
2022-11-04T20:54:48.435Z,9.87
2022-11-04T20:57:16.931Z,9.27
2022-11-04T20:59:44.803Z,9.80
2022-11-04T21:02:14.173Z,10.07
2022-11-04T21:04:42.179Z,11.63
2022-11-04T21:07:10.399Z,10.90
2022-11-04T21:09:38.361Z,10.20
2022-11-04T21:12:06.896Z,10.20
2022-11-04T21:14:35.342Z,9.67
2022-11-04T21:17:03.642Z,10.07
2022-11-04T21:19:33.171Z,10.77
2022-11-04T21:22:01.063Z,10.47
2022-11-04T21:24:37.925Z,11.20
2022-11-04T21:27:06.985Z,13.67
2022-11-04T21:29:34.958Z,13.77
2022-11-04T21:32:02.991Z,15.40
2022-11-04T21:34:32.325Z,13.57
2022-11-04T21:37:00.436Z,14.40
2022-11-04T21:39:28.355Z,14.40
2022-11-04T21:41:56.206Z,12.73
2022-11-04T21:44:24.447Z,15.40
2022-11-04T21:46:52.509Z,16.37
2022-11-04T21:49:20.879Z,17.07
2022-11-04T21:51:50.148Z,15.30
2022-11-04T21:54:18.129Z,13.03
2022-11-04T21:56:46.671Z,12.47
2022-11-04T21:59:18.304Z,13.63
2022-11-04T22:01:46.765Z,12.37
2022-11-04T22:04:15.002Z,12.40
2022-11-04T22:06:42.891Z,12.57
2022-11-04T22:09:13.245Z,12.77
2022-11-04T22:11:41.082Z,13.23
2022-11-04T22:14:09.469Z,12.17
2022-11-04T22:16:39.258Z,12.40
2022-11-04T22:19:10.355Z,11.27
2022-11-04T22:21:40.934Z,11.17
2022-11-04T22:24:13.080Z,12.53
2022-11-04T22:26:41.097Z,12.90
2022-11-04T22:29:09.665Z,11.57
2022-11-04T22:31:40.192Z,12.17
2022-11-04T22:34:08.371Z,12.57
2022-11-04T22:36:36.268Z,11.33
2022-11-04T22:39:05.512Z,12.33
2022-11-04T22:41:35.674Z,11.67
2022-11-04T22:44:04.320Z,12.07
2022-11-04T22:46:33.707Z,11.33
2022-11-04T22:49:01.806Z,11.90
2022-11-04T22:51:31.534Z,11.53
2022-11-04T22:54:04.833Z,11.13
2022-11-04T22:56:37.956Z,10.87
2022-11-04T22:59:06.098Z,10.70
2022-11-04T23:01:34.301Z,9.40
2022-11-04T23:04:02.680Z,9.83
2022-11-04T23:06:30.809Z,9.80
2022-11-04T23:09:00.772Z,9.57
2022-11-04T23:11:47.803Z,9.50
2022-11-04T23:14:40.107Z,9.37
2022-11-04T23:17:33.528Z,9.27
2022-11-04T23:20:01.738Z,9.23
2022-11-04T23:22:47.037Z,9.77
2022-11-04T23:25:15.243Z,9.30
2022-11-04T23:28:05.090Z,9.80
2022-11-04T23:30:35.884Z,9.30
2022-11-04T23:33:05.948Z,9.27
2022-11-04T23:35:53.495Z,8.83
2022-11-04T23:38:21.578Z,9.93
2022-11-04T23:41:04.770Z,9.47
2022-11-04T23:43:32.750Z,9.77
2022-11-04T23:46:19.999Z,8.80
2022-11-04T23:49:05.246Z,8.43
2022-11-04T23:51:47.042Z,9.83
2022-11-04T23:54:32.378Z,9.83
2022-11-04T23:57:17.807Z,10.13
